Time;durP1;ratioP1;P1;durP2;ratioP2;P2;SDS_P1;SDS_P2;PMS_P1;PMS_P2;Temp;Humidity;BMP_temperature;BMP_pressure;BME280_temperature;BME280_humidity;BME280_pressure;Samples;Min_cycle;Max_cycle;Signal;HPM_P1;HPM_P2
2023/07/22 00:01:03;;;;;;;18.45;8.18;;;;;;;;;;5081993;28;20048;-88
2023/07/22 00:03:31;;;;;;;17.17;8.68;;;;;;;;;;5067982;28;20113;-88
2023/07/22 00:06:08;;;;;;;20.27;8.68;;;;;;;;;;5065143;28;20240;-88
2023/07/22 00:08:35;;;;;;;18.83;9.43;;;;;;;;;;5082463;28;20056;-88
2023/07/22 00:11:11;;;;;;;20.27;8.63;;;;;;;;;;5071890;28;20036;-88
2023/07/22 00:13:38;;;;;;;;;;;;;;;;;;5087846;28;20083;-88
2023/07/22 00:16:07;;;;;;;17.08;8.55;;;;;;;;;;5088669;28;19921;-88
2023/07/22 00:18:34;;;;;;;19.63;8.68;;;;;;;;;;5071069;28;20140;-88
2023/07/22 00:21:01;;;;;;;16.73;8.68;;;;;;;;;;5087683;28;20041;-88
2023/07/22 00:23:29;;;;;;;22.58;9.05;;;;;;;;;;5070579;28;20074;-88
2023/07/22 00:25:57;;;;;;;20.52;8.50;;;;;;;;;;5072770;28;20054;-88
2023/07/22 00:28:23;;;;;;;18.65;8.95;;;;;;;;;;5089896;28;20453;-88
2023/07/22 00:30:53;;;;;;;20.83;9.48;;;;;;;;;;5067170;28;20059;-88
2023/07/22 00:33:20;;;;;;;19.33;8.95;;;;;;;;;;5082383;28;20048;-88
2023/07/22 00:35:50;;;;;;;16.48;9.02;;;;;;;;;;5083922;28;20040;-88
2023/07/22 00:38:17;;;;;;;24.23;9.90;;;;;;;;;;5087308;28;20147;-88
2023/07/22 00:40:45;;;;;;;22.65;9.20;;;;;;;;;;5084964;28;20045;-88
2023/07/22 00:43:12;;;;;;;18.67;9.63;;;;;;;;;;5084548;28;20068;-87
2023/07/22 00:45:39;;;;;;;17.33;8.73;;;;;;;;;;5066941;28;20052;-87
2023/07/22 00:48:07;;;;;;;19.42;9.10;;;;;;;;;;5085735;28;20153;-88
2023/07/22 00:50:35;;;;;;;20.02;8.90;;;;;;;;;;5084730;28;20068;-88
2023/07/22 00:53:02;;;;;;;28.70;9.90;;;;;;;;;;5066050;28;20433;-88
2023/07/22 00:55:29;;;;;;;24.33;9.40;;;;;;;;;;5065182;28;20100;-88
2023/07/22 00:57:56;;;;;;;23.52;9.52;;;;;;;;;;5083517;28;20104;-88
2023/07/22 01:00:24;;;;;;;19.15;8.68;;;;;;;;;;5083995;28;20087;-88
2023/07/22 01:02:51;;;;;;;16.73;8.77;;;;;;;;;;5083513;28;20067;-89
2023/07/22 01:05:17;;;;;;;20.52;8.70;;;;;;;;;;5067197;28;20055;-88
2023/07/22 01:07:44;;;;;;;18.48;8.32;;;;;;;;;;5067135;28;20048;-88
2023/07/22 01:10:12;;;;;;;16.70;8.48;;;;;;;;;;5066908;28;20141;-88
2023/07/22 01:12:52;;;;;;;19.73;8.43;;;;;;;;;;5085064;28;20048;-88
2023/07/22 01:15:19;;;;;;;21.30;8.77;;;;;;;;;;5065746;28;20197;-88
2023/07/22 01:17:46;;;;;;;20.52;8.20;;;;;;;;;;5064083;28;20091;-88
2023/07/22 01:20:15;;;;;;;17.52;8.13;;;;;;;;;;5064288;28;20056;-88
2023/07/22 01:22:43;;;;;;;18.88;8.27;;;;;;;;;;5071613;28;20041;-87
2023/07/22 01:25:13;;;;;;;20.50;8.15;;;;;;;;;;5068623;28;20076;-88
2023/07/22 01:27:39;;;;;;;18.35;7.65;;;;;;;;;;5066068;28;20444;-88
2023/07/22 01:30:09;;;;;;;18.40;8.73;;;;;;;;;;5066292;28;20137;-88
2023/07/22 01:32:36;;;;;;;19.42;8.70;;;;;;;;;;5070094;28;20129;-88
2023/07/22 01:35:03;;;;;;;21.25;8.50;;;;;;;;;;5084617;28;20099;-88
2023/07/22 01:37:31;;;;;;;20.95;8.27;;;;;;;;;;5067658;28;20219;-87
2023/07/22 01:39:58;;;;;;;16.08;7.65;;;;;;;;;;5066728;28;20063;-88
2023/07/22 01:42:25;;;;;;;20.88;8.23;;;;;;;;;;5067149;28;20072;-88
2023/07/22 01:44:55;;;;;;;21.35;8.40;;;;;;;;;;5067743;28;20379;-88
2023/07/22 01:47:22;;;;;;;19.80;7.80;;;;;;;;;;5082759;28;20178;-86
2023/07/22 01:49:49;;;;;;;20.60;8.18;;;;;;;;;;5083918;28;20332;-88
2023/07/22 01:52:28;;;;;;;22.73;8.38;;;;;;;;;;5065947;28;20265;-86
2023/07/22 01:54:55;;;;;;;18.73;7.18;;;;;;;;;;5065570;28;20044;-87
2023/07/22 01:57:22;;;;;;;15.80;6.85;;;;;;;;;;5066480;28;20055;-87
2023/07/22 01:59:49;;;;;;;20.42;8.15;;;;;;;;;;5066073;28;20044;-87
2023/07/22 02:02:16;;;;;;;20.63;7.95;;;;;;;;;;5065985;28;20044;-88
2023/07/22 02:04:43;;;;;;;23.20;7.95;;;;;;;;;;5083117;28;20068;-86
2023/07/22 02:07:10;;;;;;;15.10;6.57;;;;;;;;;;5083793;28;20064;-87
2023/07/22 02:09:37;;;;;;;19.20;7.80;;;;;;;;;;5065973;28;20067;-87
2023/07/22 02:12:06;;;;;;;16.65;7.20;;;;;;;;;;5065746;28;20080;-87
2023/07/22 02:14:33;;;;;;;22.98;7.05;;;;;;;;;;5067176;28;20053;-87
2023/07/22 02:17:02;;;;;;;16.83;7.55;;;;;;;;;;5090261;28;20040;-87
2023/07/22 02:19:29;;;;;;;18.92;7.50;;;;;;;;;;5071360;28;20059;-87
2023/07/22 02:21:58;;;;;;;15.73;6.78;;;;;;;;;;5074496;28;20053;-87
2023/07/22 02:24:26;;;;;;;15.50;6.32;;;;;;;;;;5075071;28;20067;-87
2023/07/22 02:26:53;;;;;;;17.67;8.32;;;;;;;;;;5075902;28;20036;-87
2023/07/22 02:29:19;;;;;;;16.02;6.95;;;;;;;;;;5093321;28;20074;-87
2023/07/22 02:31:47;;;;;;;21.00;6.93;;;;;;;;;;5093395;28;20036;-87
2023/07/22 02:34:13;;;;;;;15.88;6.95;;;;;;;;;;5074931;28;20036;-88
2023/07/22 02:36:40;;;;;;;16.08;6.70;;;;;;;;;;5076430;28;20108;-87
2023/07/22 02:39:09;;;;;;;19.48;8.05;;;;;;;;;;5090244;28;20104;-87
2023/07/22 02:41:36;;;;;;;23.63;8.38;;;;;;;;;;5090038;28;20032;-86
2023/07/22 02:44:03;;;;;;;14.40;6.57;;;;;;;;;;5071168;28;20045;-87
2023/07/22 02:46:41;;;;;;;18.42;7.25;;;;;;;;;;5082238;28;20113;-87
2023/07/22 02:49:08;;;;;;;16.58;7.03;;;;;;;;;;5065121;28;20143;-87
2023/07/22 02:51:35;;;;;;;21.75;8.30;;;;;;;;;;5065391;28;20052;-87
2023/07/22 02:54:03;;;;;;;20.13;7.47;;;;;;;;;;5068565;28;20044;-87
2023/07/22 02:56:30;;;;;;;21.10;7.95;;;;;;;;;;5081972;28;20052;-87
2023/07/22 02:58:57;;;;;;;13.65;6.22;;;;;;;;;;5064143;28;20063;-87
2023/07/22 03:01:24;;;;;;;18.40;8.07;;;;;;;;;;5063540;28;20126;-87
2023/07/22 03:03:51;;;;;;;16.55;7.43;;;;;;;;;;5064088;28;20056;-87
2023/07/22 03:06:19;;;;;;;23.52;7.50;;;;;;;;;;5082570;28;20396;-86
2023/07/22 03:08:48;;;;;;;19.90;8.18;;;;;;;;;;5081670;28;20052;-87
2023/07/22 03:11:16;;;;;;;18.48;7.70;;;;;;;;;;5064820;28;20048;-87
2023/07/22 03:13:42;;;;;;;21.45;7.72;;;;;;;;;;5090432;28;20047;-87
2023/07/22 03:16:16;;;;;;;18.77;8.15;;;;;;;;;;5080561;28;20041;-86
2023/07/22 03:18:44;;;;;;;18.33;7.60;;;;;;;;;;5096980;28;20033;-87
2023/07/22 03:21:25;;;;;;;19.02;7.50;;;;;;;;;;5080253;28;20284;-87
2023/07/22 03:24:06;;;;;;;19.20;7.78;;;;;;;;;;5089338;28;20052;-87
2023/07/22 03:26:39;;;;;;;21.67;8.27;;;;;;;;;;5082218;28;20098;-87
2023/07/22 03:29:06;;;;;;;19.80;8.02;;;;;;;;;;5082667;28;20131;-87
2023/07/22 03:31:35;;;;;;;19.85;7.93;;;;;;;;;;5064929;28;20271;-86
2023/07/22 03:34:02;;;;;;;17.05;7.85;;;;;;;;;;5064390;28;20064;-87
2023/07/22 03:36:29;;;;;;;21.40;8.10;;;;;;;;;;5064000;28;20052;-87
2023/07/22 03:38:56;;;;;;;24.55;7.78;;;;;;;;;;5062632;28;20063;-87
2023/07/22 03:41:23;;;;;;;24.52;7.93;;;;;;;;;;5062024;28;20053;-87
2023/07/22 03:43:49;;;;;;;28.25;8.88;;;;;;;;;;5060761;28;20052;-87
2023/07/22 03:46:19;;;;;;;20.55;7.20;;;;;;;;;;5062959;28;20371;-87
2023/07/22 03:48:47;;;;;;;17.30;8.00;;;;;;;;;;5063610;28;20478;-87
2023/07/22 03:51:14;;;;;;;18.95;6.93;;;;;;;;;;5081344;28;20044;-87
2023/07/22 03:53:53;;;;;;;19.40;8.27;;;;;;;;;;5063403;28;20056;-87
2023/07/22 03:56:21;;;;;;;18.60;7.05;;;;;;;;;;5062892;28;20054;-87
2023/07/22 03:58:47;;;;;;;22.98;7.88;;;;;;;;;;5063112;28;20054;-86
2023/07/22 04:01:18;;;;;;;17.05;7.85;;;;;;;;;;5083933;28;20048;-86
2023/07/22 04:03:45;;;;;;;24.13;8.57;;;;;;;;;;5065640;28;20071;-87
2023/07/22 04:06:15;;;;;;;22.35;8.00;;;;;;;;;;5063508;28;20421;-87
2023/07/22 04:08:42;;;;;;;21.27;8.55;;;;;;;;;;5082226;28;20062;-88
2023/07/22 04:11:09;;;;;;;22.73;8.80;;;;;;;;;;5065420;28;20074;-88
2023/07/22 04:13:36;;;;;;;24.95;7.60;;;;;;;;;;5068131;28;20118;-88
2023/07/22 04:16:03;;;;;;;20.60;8.65;;;;;;;;;;5071632;28;20101;-87
2023/07/22 04:18:34;;;;;;;19.15;7.85;;;;;;;;;;5085593;28;20987;-87
2023/07/22 04:21:04;;;;;;;23.67;8.48;;;;;;;;;;5084095;28;20056;-88
2023/07/22 04:23:33;;;;;;;19.08;8.27;;;;;;;;;;5085865;28;20200;-88
2023/07/22 04:26:02;;;;;;;22.08;7.22;;;;;;;;;;5069351;28;20045;-87
2023/07/22 04:28:29;;;;;;;20.02;7.55;;;;;;;;;;5085050;28;20071;-87
2023/07/22 04:30:59;;;;;;;17.05;7.97;;;;;;;;;;5073244;28;20059;-87
2023/07/22 04:33:27;;;;;;;19.25;7.55;;;;;;;;;;5068757;28;20049;-87
2023/07/22 04:35:56;;;;;;;20.30;7.18;;;;;;;;;;5086076;28;20044;-87
2023/07/22 04:38:23;;;;;;;16.85;7.82;;;;;;;;;;5070788;28;20056;-87
2023/07/22 04:40:50;;;;;;;26.83;8.60;;;;;;;;;;5085152;28;20064;-87
2023/07/22 04:43:17;;;;;;;20.33;8.25;;;;;;;;;;5067834;28;20048;-87
2023/07/22 04:45:48;;;;;;;22.38;8.90;;;;;;;;;;5085534;28;20053;-87
2023/07/22 04:48:20;;;;;;;21.50;8.52;;;;;;;;;;5083065;28;20075;-87
2023/07/22 04:50:47;;;;;;;18.85;8.55;;;;;;;;;;5071937;28;20284;-87
2023/07/22 04:53:13;;;;;;;19.45;8.10;;;;;;;;;;5071606;28;20048;-88
2023/07/22 04:55:41;;;;;;;17.05;7.40;;;;;;;;;;5083304;28;20096;-87
2023/07/22 04:58:10;;;;;;;22.20;8.05;;;;;;;;;;5065361;28;20072;-87
2023/07/22 05:00:42;;;;;;;14.35;6.32;;;;;;;;;;5082547;28;20055;-87
2023/07/22 05:03:13;;;;;;;11.73;6.40;;;;;;;;;;5082292;28;20163;-87
2023/07/22 05:05:43;;;;;;;15.90;6.18;;;;;;;;;;5065953;28;20058;-87
2023/07/22 05:08:10;;;;;;;13.82;5.63;;;;;;;;;;5064937;28;20053;-87
2023/07/22 05:10:37;;;;;;;10.40;5.43;;;;;;;;;;5083234;28;20450;-87
2023/07/22 05:13:05;;;;;;;12.80;5.45;;;;;;;;;;5081857;28;20121;-87
2023/07/22 05:15:31;;;;;;;12.60;5.88;;;;;;;;;;5083625;28;20122;-87
2023/07/22 05:17:58;;;;;;;14.88;5.55;;;;;;;;;;5082185;28;20067;-86
2023/07/22 05:20:26;;;;;;;8.50;4.88;;;;;;;;;;5064803;28;20076;-87
2023/07/22 05:22:53;;;;;;;10.23;4.32;;;;;;;;;;5086940;28;20076;-86
2023/07/22 05:25:22;;;;;;;12.30;4.82;;;;;;;;;;5064791;28;20120;-87
2023/07/22 05:27:49;;;;;;;10.63;4.25;;;;;;;;;;5083014;28;20113;-87
2023/07/22 05:30:22;;;;;;;15.30;4.57;;;;;;;;;;5093169;28;20062;-87
2023/07/22 05:33:01;;;;;;;9.05;4.22;;;;;;;;;;5078517;28;20070;-87
2023/07/22 05:35:41;;;;;;;9.88;4.45;;;;;;;;;;5076565;28;20083;-87
2023/07/22 05:38:09;;;;;;;10.35;4.50;;;;;;;;;;5078773;28;20125;-86
2023/07/22 05:40:36;;;;;;;8.18;4.35;;;;;;;;;;5077775;28;20048;-86
2023/07/22 05:43:06;;;;;;;12.07;4.72;;;;;;;;;;5060416;28;20139;-86
2023/07/22 05:45:33;;;;;;;10.88;4.75;;;;;;;;;;5078004;28;20052;-87
2023/07/22 05:48:03;;;;;;;12.60;5.00;;;;;;;;;;5060820;28;20160;-87
2023/07/22 05:50:30;;;;;;;10.77;4.32;;;;;;;;;;5080969;28;20102;-87
2023/07/22 05:53:00;;;;;;;14.88;5.35;;;;;;;;;;5062593;28;20225;-87
2023/07/22 05:55:27;;;;;;;9.27;4.20;;;;;;;;;;5063768;28;20104;-88
2023/07/22 05:57:54;;;;;;;7.45;4.85;;;;;;;;;;5062197;28;20064;-88
2023/07/22 06:00:22;;;;;;;9.65;4.60;;;;;;;;;;5065414;28;20048;-88
2023/07/22 06:02:49;;;;;;;8.30;4.32;;;;;;;;;;5094125;28;20044;-86
2023/07/22 06:05:19;;;;;;;7.15;4.32;;;;;;;;;;5094119;28;20068;-87
2023/07/22 06:07:57;;;;;;;7.47;4.13;;;;;;;;;;5076426;28;20133;-87
2023/07/22 06:10:25;;;;;;;5.90;3.42;;;;;;;;;;5075236;28;20052;-87
2023/07/22 06:12:54;;;;;;;10.68;4.55;;;;;;;;;;5090435;28;20044;-86
2023/07/22 06:15:21;;;;;;;7.82;3.78;;;;;;;;;;5072622;28;20095;-87
2023/07/22 06:17:53;;;;;;;8.55;4.38;;;;;;;;;;5074050;28;20048;-86
2023/07/22 06:20:36;;;;;;;12.40;3.92;;;;;;;;;;5072273;28;20057;-87
2023/07/22 06:23:13;;;;;;;7.28;4.05;;;;;;;;;;5073912;28;20066;-86
2023/07/22 06:25:52;;;;;;;6.97;3.40;;;;;;;;;;5089889;28;20060;-86
2023/07/22 06:28:26;;;;;;;8.45;3.40;;;;;;;;;;5073107;28;20059;-86
2023/07/22 06:30:55;;;;;;;7.22;3.55;;;;;;;;;;5071819;28;20040;-86
2023/07/22 06:33:26;;;;;;;6.85;3.55;;;;;;;;;;5071029;28;20044;-85
2023/07/22 06:36:00;;;;;;;10.27;3.50;;;;;;;;;;5073002;28;20060;-87
2023/07/22 06:38:50;;;;;;;8.50;2.67;;;;;;;;;;5093140;28;20043;-86
2023/07/22 06:41:18;;;;;;;5.68;3.17;;;;;;;;;;5094457;28;20068;-86
2023/07/22 06:43:46;;;;;;;6.32;3.22;;;;;;;;;;5093428;28;20036;-87
2023/07/22 06:46:17;;;;;;;9.93;3.50;;;;;;;;;;5076873;28;20053;-86
2023/07/22 06:48:53;;;;;;;6.10;3.22;;;;;;;;;;5061964;28;20400;-88
2023/07/22 06:51:21;;;;;;;8.43;2.80;;;;;;;;;;5073988;28;20052;-87
2023/07/22 06:53:50;;;;;;;8.60;3.47;;;;;;;;;;5057208;28;20071;-86
2023/07/22 06:56:17;;;;;;;5.57;2.60;;;;;;;;;;5055197;28;20106;-86
2023/07/22 06:58:44;;;;;;;11.43;3.20;;;;;;;;;;5069217;28;20341;-87
2023/07/22 07:01:22;;;;;;;5.03;2.88;;;;;;;;;;5067644;28;20156;-87
2023/07/22 07:03:51;;;;;;;4.95;2.70;;;;;;;;;;5051232;28;20063;-86
2023/07/22 07:06:19;;;;;;;7.93;3.47;;;;;;;;;;5051193;28;20105;-88
2023/07/22 07:08:46;;;;;;;8.32;3.78;;;;;;;;;;5050655;28;20064;-88
2023/07/22 07:11:14;;;;;;;8.45;3.72;;;;;;;;;;5069086;28;20079;-87
2023/07/22 07:13:54;;;;;;;4.68;2.83;;;;;;;;;;5066206;28;20112;-87
2023/07/22 07:16:32;;;;;;;4.38;2.58;;;;;;;;;;5067652;28;20049;-87
2023/07/22 07:19:02;;;;;;;6.20;2.70;;;;;;;;;;5050448;28;20047;-87
2023/07/22 07:21:35;;;;;;;8.13;3.50;;;;;;;;;;5055421;28;20044;-87
2023/07/22 07:24:04;;;;;;;6.10;2.78;;;;;;;;;;5069808;28;20070;-87
2023/07/22 07:26:32;;;;;;;9.43;3.50;;;;;;;;;;5050878;28;20083;-88
2023/07/22 07:29:10;;;;;;;6.78;3.13;;;;;;;;;;5050227;28;20079;-88
2023/07/22 07:31:53;;;;;;;7.30;2.58;;;;;;;;;;5071013;28;20063;-87
2023/07/22 07:34:27;;;;;;;6.47;2.50;;;;;;;;;;5054600;28;20336;-88
2023/07/22 07:36:56;;;;;;;7.45;2.78;;;;;;;;;;5067087;28;20043;-88
2023/07/22 07:39:25;;;;;;;6.63;3.20;;;;;;;;;;5065863;28;20060;-86
2023/07/22 07:42:05;;;;;;;9.95;2.90;;;;;;;;;;5067879;28;20056;-88
2023/07/22 07:44:33;;;;;;;6.93;2.47;;;;;;;;;;5051716;28;20052;-87
2023/07/22 07:47:26;;;;;;;5.28;2.70;;;;;;;;;;5068707;28;20075;-88
2023/07/22 07:50:04;;;;;;;5.10;2.83;;;;;;;;;;5070059;28;20048;-89
2023/07/22 07:52:45;;;;;;;5.32;2.38;;;;;;;;;;5053046;28;20083;-87
2023/07/22 07:55:26;;;;;;;6.15;2.60;;;;;;;;;;5069803;28;20041;-87
2023/07/22 07:58:06;;;;;;;3.97;2.03;;;;;;;;;;5067895;28;20040;-86
2023/07/22 08:00:50;;;;;;;5.30;2.40;;;;;;;;;;5067756;28;20043;-88
2023/07/22 08:03:34;;;;;;;6.93;2.03;;;;;;;;;;5054347;28;20053;-87
2023/07/22 08:06:15;;;;;;;7.65;2.72;;;;;;;;;;5054780;28;20063;-88
2023/07/22 08:08:56;;;;;;;3.83;2.05;;;;;;;;;;5070926;28;20045;-88
2023/07/22 08:11:33;;;;;;;6.57;1.80;;;;;;;;;;5055171;28;20049;-88
2023/07/22 08:14:40;;;;;;;9.60;2.10;;;;;;;;;;5055782;28;20052;-88
2023/07/22 08:17:20;;;;;;;4.78;2.50;;;;;;;;;;5071338;28;20045;-88
2023/07/22 08:20:04;;;;;;;6.25;2.72;;;;;;;;;;5070411;28;20048;-88
2023/07/22 08:22:44;;;;;;;5.07;2.13;;;;;;;;;;5056083;28;20036;-86
2023/07/22 08:25:25;;;;;;;10.77;2.22;;;;;;;;;;5055661;28;20091;-89
2023/07/22 08:28:05;;;;;;;4.10;1.92;;;;;;;;;;5070590;28;20037;-87
2023/07/22 08:31:14;;;;;;;4.03;2.17;;;;;;;;;;5068630;28;20083;-88
2023/07/22 08:33:42;;;;;;;4.78;2.25;;;;;;;;;;5069256;28;20029;-88
2023/07/22 08:36:22;;;;;;;6.22;2.42;;;;;;;;;;5053019;28;20125;-88
2023/07/22 08:39:03;;;;;;;7.80;2.15;;;;;;;;;;5070765;28;20044;-89
2023/07/22 08:41:33;;;;;;;4.88;2.60;;;;;;;;;;5053138;28;20059;-88
2023/07/22 08:44:23;;;;;;;8.88;2.88;;;;;;;;;;5055959;28;20060;-87
2023/07/22 08:47:05;;;;;;;5.72;2.17;;;;;;;;;;5056680;28;20258;-88
2023/07/22 08:49:53;;;;;;;10.25;3.17;;;;;;;;;;5071511;28;20048;-88
2023/07/22 08:52:23;;;;;;;6.13;2.83;;;;;;;;;;5071304;28;20079;-88
2023/07/22 08:55:08;;;;;;;7.97;2.97;;;;;;;;;;5054884;28;20041;-89
2023/07/22 08:58:02;;;;;;;7.97;3.20;;;;;;;;;;5058706;28;20037;-88
2023/07/22 09:00:32;;;;;;;4.68;2.90;;;;;;;;;;5076241;28;20096;-88
2023/07/22 09:03:16;;;;;;;8.27;4.00;;;;;;;;;;5059617;28;20041;-88
2023/07/22 09:05:56;;;;;;;6.03;3.60;;;;;;;;;;5059419;28;20036;-88
2023/07/22 09:08:39;;;;;;;8.35;4.07;;;;;;;;;;5074642;28;20033;-89
2023/07/22 09:11:21;;;;;;;9.02;4.35;;;;;;;;;;5060098;28;20136;-89
2023/07/22 09:14:06;;;;;;;7.95;4.07;;;;;;;;;;5075669;28;20060;-89
2023/07/22 09:16:46;;;;;;;10.00;4.22;;;;;;;;;;5076256;28;20079;-89
2023/07/22 09:19:27;;;;;;;6.88;3.53;;;;;;;;;;5076011;28;20399;-88
2023/07/22 09:21:58;;;;;;;6.50;4.05;;;;;;;;;;5059571;28;20064;-89
2023/07/22 09:25:12;;;;;;;5.85;3.63;;;;;;;;;;5061653;28;20037;-88
2023/07/22 09:27:54;;;;;;;7.45;4.35;;;;;;;;;;5076565;28;20048;-88
2023/07/22 09:30:38;;;;;;;13.95;5.07;;;;;;;;;;5076914;28;20036;-89
2023/07/22 09:33:08;;;;;;;7.07;4.22;;;;;;;;;;5059876;28;20037;-89
2023/07/22 09:35:51;;;;;;;7.88;4.57;;;;;;;;;;5075686;28;20059;-87
2023/07/22 09:38:34;;;;;;;12.20;5.20;;;;;;;;;;5060643;28;20043;-89
2023/07/22 09:41:19;;;;;;;7.22;4.28;;;;;;;;;;5060287;28;20087;-88
2023/07/22 09:44:20;;;;;;;8.48;4.82;;;;;;;;;;5076416;28;20032;-88
2023/07/22 09:47:06;;;;;;;12.35;5.50;;;;;;;;;;5060154;28;20033;-89
2023/07/22 09:49:49;;;;;;;9.15;4.80;;;;;;;;;;5059425;28;20028;-90
2023/07/22 09:52:30;;;;;;;6.60;4.10;;;;;;;;;;5075663;28;20048;-87
2023/07/22 09:55:23;;;;;;;8.75;4.63;;;;;;;;;;5074243;28;20037;-89
2023/07/22 09:58:30;;;;;;;9.95;5.13;;;;;;;;;;5060346;28;20048;-89
2023/07/22 10:01:15;;;;;;;10.32;5.68;;;;;;;;;;5075587;28;20036;-89
2023/07/22 10:03:56;;;;;;;7.88;4.45;;;;;;;;;;5074703;28;20037;-88
2023/07/22 10:06:37;;;;;;;9.93;4.32;;;;;;;;;;5075357;28;20032;-89
2023/07/22 10:09:23;;;;;;;7.28;4.75;;;;;;;;;;5074589;28;20029;-88
2023/07/22 10:12:06;;;;;;;9.10;4.78;;;;;;;;;;5076048;28;20075;-89
2023/07/22 10:14:49;;;;;;;8.88;4.70;;;;;;;;;;5060322;28;20134;-88
2023/07/22 10:17:29;;;;;;;7.82;4.35;;;;;;;;;;5059612;28;20043;-90
2023/07/22 10:20:29;;;;;;;8.13;4.38;;;;;;;;;;5059090;28;20136;-89
2023/07/22 10:23:15;;;;;;;8.57;4.35;;;;;;;;;;5058784;28;20053;-89
2023/07/22 10:25:57;;;;;;;8.18;4.95;;;;;;;;;;5058170;28;20064;-88
2023/07/22 10:29:06;;;;;;;8.85;4.82;;;;;;;;;;5075961;28;20048;-88
2023/07/22 10:31:52;;;;;;;6.28;4.32;;;;;;;;;;5074585;28;20041;-89
2023/07/22 10:34:33;;;;;;;;;;;;;;;;;;5060945;28;20107;-88
2023/07/22 10:37:13;;;;;;;8.95;4.90;;;;;;;;;;5060254;28;20016;-89
2023/07/22 10:39:49;;;;;;;8.10;4.70;;;;;;;;;;5076640;28;20051;-90
2023/07/22 10:42:31;;;;;;;9.48;4.30;;;;;;;;;;5059863;28;20052;-89
2023/07/22 10:45:00;;;;;;;6.10;3.75;;;;;;;;;;5075973;28;20063;-90
2023/07/22 10:47:42;;;;;;;7.15;3.90;;;;;;;;;;5064151;28;20044;-89
2023/07/22 10:50:37;;;;;;;7.10;3.83;;;;;;;;;;5080353;28;20136;-90
2023/07/22 10:53:24;;;;;;;8.75;4.05;;;;;;;;;;5079484;28;20051;-89
2023/07/22 10:56:08;;;;;;;9.60;3.88;;;;;;;;;;5094540;28;20099;-89
2023/07/22 10:58:52;;;;;;;11.07;4.13;;;;;;;;;;5095793;28;20029;-89
2023/07/22 11:01:34;;;;;;;6.93;3.53;;;;;;;;;;5095407;28;20100;-89
2023/07/22 11:04:17;;;;;;;5.22;3.30;;;;;;;;;;5095046;28;20048;-89
2023/07/22 11:06:59;;;;;;;6.63;4.03;;;;;;;;;;5079346;28;20024;-88
2023/07/22 11:10:18;;;;;;;6.30;3.85;;;;;;;;;;5094902;28;20045;-88
2023/07/22 11:12:59;;;;;;;6.03;3.92;;;;;;;;;;4998885;28;20038;-89
2023/07/22 11:15:46;;;;;;;5.68;3.47;;;;;;;;;;5013681;28;20034;-89
2023/07/22 11:18:43;;;;;;;10.20;4.10;;;;;;;;;;5065244;28;20044;-90
2023/07/22 11:21:23;;;;;;;8.07;3.85;;;;;;;;;;5079009;28;20044;-89
2023/07/22 11:24:24;;;;;;;7.75;4.15;;;;;;;;;;5078739;28;20037;-89
2023/07/22 11:27:06;;;;;;;7.13;3.72;;;;;;;;;;5079838;28;20032;-89
2023/07/22 11:29:48;;;;;;;6.25;4.03;;;;;;;;;;5078803;28;20047;-89
2023/07/22 11:32:29;;;;;;;7.85;4.22;;;;;;;;;;5078177;28;20033;-89
2023/07/22 11:35:17;;;;;;;7.72;4.05;;;;;;;;;;5080336;28;20024;-90
2023/07/22 11:38:04;;;;;;;9.32;4.72;;;;;;;;;;5078940;28;20035;-88
2023/07/22 11:40:47;;;;;;;9.20;3.75;;;;;;;;;;5094496;28;20032;-88
2023/07/22 11:43:17;;;;;;;9.20;3.72;;;;;;;;;;5078263;28;20059;-89
2023/07/22 11:45:58;;;;;;;9.00;4.13;;;;;;;;;;5069632;28;20052;-88
2023/07/22 11:48:39;;;;;;;8.10;4.25;;;;;;;;;;5078179;28;20051;-89
2023/07/22 11:51:49;;;;;;;7.28;4.22;;;;;;;;;;5078697;28;20036;-89
2023/07/22 11:54:31;;;;;;;10.13;4.45;;;;;;;;;;5079639;28;20044;-89
2023/07/22 12:00:47;;;;;;;6.20;4.05;;;;;;;;;;5096111;28;20057;-91
2023/07/22 12:03:30;;;;;;;7.82;4.28;;;;;;;;;;5080029;28;20036;-88
2023/07/22 12:06:12;;;;;;;6.68;3.55;;;;;;;;;;5094671;28;20028;-88
2023/07/22 12:08:53;;;;;;;7.03;4.15;;;;;;;;;;5095195;28;20060;-90
2023/07/22 12:11:36;;;;;;;7.43;3.97;;;;;;;;;;5079039;28;20043;-89
2023/07/22 12:14:18;;;;;;;5.93;3.50;;;;;;;;;;5068866;28;20143;-89
2023/07/22 12:17:01;;;;;;;7.03;3.65;;;;;;;;;;5078668;28;20040;-88
2023/07/22 12:19:51;;;;;;;6.25;3.95;;;;;;;;;;5078733;28;20057;-87
2023/07/22 12:22:31;;;;;;;9.60;4.65;;;;;;;;;;5078251;28;20031;-88
2023/07/22 12:25:14;;;;;;;5.93;3.72;;;;;;;;;;5078224;28;20044;-88
2023/07/22 12:28:07;;;;;;;8.15;4.38;;;;;;;;;;5093210;28;20134;-88
2023/07/22 12:30:48;;;;;;;10.98;4.30;;;;;;;;;;5077305;28;20116;-88
2023/07/22 12:33:31;;;;;;;6.93;4.00;;;;;;;;;;5082623;28;20068;-88
2023/07/22 12:36:13;;;;;;;9.23;4.10;;;;;;;;;;5082182;28;20036;-88
2023/07/22 12:39:06;;;;;;;6.63;3.88;;;;;;;;;;5097939;28;20099;-88
2023/07/22 12:41:48;;;;;;;7.53;4.05;;;;;;;;;;5098421;28;20028;-90
2023/07/22 12:44:49;;;;;;;9.73;4.07;;;;;;;;;;5083377;28;20043;-88
2023/07/22 12:47:39;;;;;;;11.95;4.78;;;;;;;;;;5083016;28;20078;-89
2023/07/22 12:50:20;;;;;;;7.72;4.55;;;;;;;;;;5081174;28;20040;-88
2023/07/22 12:53:25;;;;;;;8.95;6.13;;;;;;;;;;5083285;28;20082;-89
2023/07/22 12:56:06;;;;;;;11.88;6.15;;;;;;;;;;5083541;28;20024;-90
2023/07/22 12:59:12;;;;;;;12.65;7.53;;;;;;;;;;5098854;28;20037;-90
2023/07/22 13:01:53;;;;;;;16.33;7.28;;;;;;;;;;5083864;28;20080;-90
2023/07/22 13:04:39;;;;;;;13.43;7.72;;;;;;;;;;5196130;22;20030;-91
2023/07/22 13:10:12;;;;;;;15.38;7.22;;;;;;;;;;5097518;28;20072;-89
2023/07/22 13:12:54;;;;;;;14.13;7.97;;;;;;;;;;5097417;28;20107;-89
2023/07/22 13:18:13;;;;;;;18.20;7.90;;;;;;;;;;5457308;22;20101;-89
2023/07/22 13:20:53;;;;;;;14.57;7.38;;;;;;;;;;5097478;28;20084;-89
2023/07/22 13:23:40;;;;;;;13.27;6.63;;;;;;;;;;5290888;22;20221;-89
2023/07/22 13:26:21;;;;;;;9.80;6.50;;;;;;;;;;5078001;28;20047;-89
2023/07/22 13:32:46;;;;;;;11.18;7.00;;;;;;;;;;5078409;28;20067;-88
2023/07/22 13:35:26;;;;;;;12.07;7.38;;;;;;;;;;5077340;28;20028;-88
2023/07/22 13:40:51;;;;;;;11.67;6.83;;;;;;;;;;5714047;22;20037;-89
2023/07/22 13:44:18;;;;;;;13.40;7.63;;;;;;;;;;5081654;28;20100;-88
2023/07/22 13:46:46;;;;;;;12.07;7.25;;;;;;;;;;5095154;28;20047;-89
2023/07/22 13:49:29;;;;;;;13.00;7.45;;;;;;;;;;5080546;28;20035;-89
2023/07/22 13:52:10;;;;;;;12.65;7.50;;;;;;;;;;5093869;22;20068;-88
2023/07/22 13:54:54;;;;;;;18.27;8.65;;;;;;;;;;5081665;28;20052;-88
2023/07/22 13:57:34;;;;;;;19.15;8.93;;;;;;;;;;5081222;28;20052;-88
2023/07/22 14:00:15;;;;;;;19.70;9.85;;;;;;;;;;5081451;28;20045;-88
2023/07/22 14:02:57;;;;;;;24.75;11.48;;;;;;;;;;5081682;28;20025;-88
2023/07/22 14:05:38;;;;;;;24.27;10.60;;;;;;;;;;5080963;28;20039;-88
2023/07/22 14:08:18;;;;;;;22.63;11.48;;;;;;;;;;5097755;28;20088;-88
2023/07/22 14:11:02;;;;;;;22.98;10.68;;;;;;;;;;5082079;28;20036;-87
2023/07/22 14:13:43;;;;;;;22.23;9.88;;;;;;;;;;5081653;28;20032;-88
2023/07/22 14:16:12;;;;;;;20.48;10.95;;;;;;;;;;5081032;28;20041;-89
2023/07/22 14:18:53;;;;;;;22.52;11.20;;;;;;;;;;5094544;28;20048;-89
2023/07/22 14:21:33;;;;;;;23.77;10.93;;;;;;;;;;5080758;28;20028;-88
2023/07/22 14:24:33;;;;;;;21.05;10.88;;;;;;;;;;5081771;28;20089;-88
2023/07/22 14:27:13;;;;;;;23.17;11.23;;;;;;;;;;5082118;28;20033;-89
2023/07/22 14:29:54;;;;;;;17.27;10.23;;;;;;;;;;5081575;28;20125;-89
2023/07/22 14:32:37;;;;;;;19.02;10.07;;;;;;;;;;5080963;28;20024;-89
2023/07/22 14:35:19;;;;;;;14.75;9.38;;;;;;;;;;5096269;28;20020;-88
2023/07/22 14:38:00;;;;;;;14.80;9.23;;;;;;;;;;5078397;28;20415;-89
2023/07/22 14:40:41;;;;;;;17.30;9.95;;;;;;;;;;5080518;28;20024;-89
2023/07/22 14:43:25;;;;;;;21.67;10.00;;;;;;;;;;5079349;28;20064;-88
2023/07/22 14:46:05;;;;;;;19.23;8.88;;;;;;;;;;5092567;28;20150;-88
2023/07/22 14:49:11;;;;;;;18.55;9.95;;;;;;;;;;5081479;28;20040;-88
2023/07/22 14:51:56;;;;;;;19.50;10.43;;;;;;;;;;5765414;22;20029;-87
2023/07/22 14:54:36;;;;;;;17.08;10.30;;;;;;;;;;5094781;28;20036;-87
2023/07/22 14:57:17;;;;;;;17.25;11.07;;;;;;;;;;5095994;28;20013;-86
2023/07/22 15:02:35;;;;;;;19.00;11.15;;;;;;;;;;5130059;22;20066;-86
2023/07/22 15:05:15;;;;;;;22.85;10.98;;;;;;;;;;5096031;28;20037;-88
2023/07/22 15:07:56;;;;;;;20.98;11.27;;;;;;;;;;5093545;28;20060;-89
2023/07/22 15:10:58;;;;;;;20.80;11.10;;;;;;;;;;5081154;28;20024;-87
2023/07/22 15:17:05;;;;;;;20.30;10.52;;;;;;;;;;5097654;28;20112;-87
2023/07/22 15:20:14;;;;;;;17.80;10.18;;;;;;;;;;5081089;28;20028;-87
2023/07/22 15:22:54;;;;;;;19.45;9.13;;;;;;;;;;5096136;28;20097;-88
2023/07/22 15:25:37;;;;;;;17.83;10.00;;;;;;;;;;5209621;22;20065;-88
2023/07/22 15:28:19;;;;;;;19.17;10.63;;;;;;;;;;5076086;28;20049;-87
2023/07/22 15:34:40;;;;;;;16.70;9.57;;;;;;;;;;5077510;28;20028;-87
2023/07/22 15:37:21;;;;;;;15.25;9.70;;;;;;;;;;5076379;28;20021;-88
2023/07/22 15:40:04;;;;;;;16.98;9.68;;;;;;;;;;5077335;28;20048;-87
2023/07/22 15:42:45;;;;;;;13.95;9.02;;;;;;;;;;5075293;28;20029;-87
2023/07/22 15:49:23;;;;;;;11.27;6.85;;;;;;;;;;5077375;28;20212;-87
2023/07/22 15:52:12;;;;;;;13.35;7.13;;;;;;;;;;5076930;28;20025;-89
2023/07/22 15:55:14;;;;;;;17.52;7.00;;;;;;;;;;5075512;28;20021;-87
2023/07/22 15:57:57;;;;;;;11.52;6.38;;;;;;;;;;5077141;28;20017;-87
2023/07/22 16:00:49;;;;;;;10.73;6.60;;;;;;;;;;5075735;28;20029;-88